sensor_id;sensor_type;location;lat;lon;timestamp;P1;durP1;ratioP1;P2;durP2;ratioP2
46729;SDS011;32476;50.002;11.854;2023-07-31T00:01:23;4.47;;;2.00;;
46729;SDS011;32476;50.002;11.854;2023-07-31T00:03:49;8.33;;;2.10;;
46729;SDS011;32476;50.002;11.854;2023-07-31T00:06:17;6.30;;;1.90;;
46729;SDS011;32476;50.002;11.854;2023-07-31T00:08:44;8.00;;;2.70;;
46729;SDS011;32476;50.002;11.854;2023-07-31T00:11:10;8.40;;;2.47;;
46729;SDS011;32476;50.002;11.854;2023-07-31T00:13:37;5.50;;;2.33;;
46729;SDS011;32476;50.002;11.854;2023-07-31T00:16:03;5.43;;;2.07;;
46729;SDS011;32476;50.002;11.854;2023-07-31T00:18:29;6.93;;;2.40;;
46729;SDS011;32476;50.002;11.854;2023-07-31T00:20:57;6.87;;;2.10;;
46729;SDS011;32476;50.002;11.854;2023-07-31T00:23:23;4.90;;;2.20;;
46729;SDS011;32476;50.002;11.854;2023-07-31T00:25:49;8.37;;;2.57;;
46729;SDS011;32476;50.002;11.854;2023-07-31T00:28:16;6.33;;;2.17;;
46729;SDS011;32476;50.002;11.854;2023-07-31T00:30:42;9.93;;;2.27;;
46729;SDS011;32476;50.002;11.854;2023-07-31T00:33:08;6.60;;;2.23;;
46729;SDS011;32476;50.002;11.854;2023-07-31T00:35:35;4.50;;;2.30;;
46729;SDS011;32476;50.002;11.854;2023-07-31T00:38:01;6.17;;;2.00;;
46729;SDS011;32476;50.002;11.854;2023-07-31T00:40:27;6.30;;;1.50;;
46729;SDS011;32476;50.002;11.854;2023-07-31T00:42:55;10.63;;;1.37;;
46729;SDS011;32476;50.002;11.854;2023-07-31T00:45:21;4.40;;;1.50;;
46729;SDS011;32476;50.002;11.854;2023-07-31T00:47:48;6.77;;;2.10;;
46729;SDS011;32476;50.002;11.854;2023-07-31T00:50:16;4.73;;;1.50;;
46729;SDS011;32476;50.002;11.854;2023-07-31T00:52:42;7.87;;;1.57;;
46729;SDS011;32476;50.002;11.854;2023-07-31T00:55:08;4.13;;;1.47;;
46729;SDS011;32476;50.002;11.854;2023-07-31T00:57:36;8.80;;;2.10;;
46729;SDS011;32476;50.002;11.854;2023-07-31T01:00:03;7.00;;;1.40;;
46729;SDS011;32476;50.002;11.854;2023-07-31T01:02:31;6.03;;;1.30;;
46729;SDS011;32476;50.002;11.854;2023-07-31T01:04:58;10.47;;;2.00;;
46729;SDS011;32476;50.002;11.854;2023-07-31T01:07:38;12.57;;;1.97;;
46729;SDS011;32476;50.002;11.854;2023-07-31T01:10:26;4.83;;;1.77;;
46729;SDS011;32476;50.002;11.854;2023-07-31T01:12:56;4.93;;;1.67;;
46729;SDS011;32476;50.002;11.854;2023-07-31T01:15:24;3.13;;;1.90;;
46729;SDS011;32476;50.002;11.854;2023-07-31T01:17:50;6.03;;;1.70;;
46729;SDS011;32476;50.002;11.854;2023-07-31T01:31:51;4.63;;;1.70;;
46729;SDS011;32476;50.002;11.854;2023-07-31T01:34:22;6.27;;;1.90;;
46729;SDS011;32476;50.002;11.854;2023-07-31T01:36:48;7.37;;;2.23;;
46729;SDS011;32476;50.002;11.854;2023-07-31T01:39:14;4.70;;;1.50;;
46729;SDS011;32476;50.002;11.854;2023-07-31T01:41:42;14.77;;;2.40;;
46729;SDS011;32476;50.002;11.854;2023-07-31T01:44:08;4.50;;;2.10;;
46729;SDS011;32476;50.002;11.854;2023-07-31T01:46:34;1384.93;;;713.33;;
46729;SDS011;32476;50.002;11.854;2023-07-31T01:49:01;1999.90;;;999.90;;
46729;SDS011;32476;50.002;11.854;2023-07-31T01:51:27;1999.90;;;999.90;;
46729;SDS011;32476;50.002;11.854;2023-07-31T01:53:53;360.10;;;110.80;;
46729;SDS011;32476;50.002;11.854;2023-07-31T01:56:20;1999.90;;;999.90;;
46729;SDS011;32476;50.002;11.854;2023-07-31T01:58:46;4.57;;;2.13;;
46729;SDS011;32476;50.002;11.854;2023-07-31T02:01:12;7.23;;;5.10;;
46729;SDS011;32476;50.002;11.854;2023-07-31T02:03:40;8.93;;;2.77;;
46729;SDS011;32476;50.002;11.854;2023-07-31T02:06:07;8.53;;;2.60;;
46729;SDS011;32476;50.002;11.854;2023-07-31T02:08:33;10.03;;;2.20;;
46729;SDS011;32476;50.002;11.854;2023-07-31T02:11:00;5.87;;;2.80;;
46729;SDS011;32476;50.002;11.854;2023-07-31T02:13:26;9.33;;;2.83;;
46729;SDS011;32476;50.002;11.854;2023-07-31T02:15:52;4.87;;;2.30;;
46729;SDS011;32476;50.002;11.854;2023-07-31T02:18:20;7.90;;;2.80;;
46729;SDS011;32476;50.002;11.854;2023-07-31T02:20:50;10.63;;;3.80;;
46729;SDS011;32476;50.002;11.854;2023-07-31T02:23:18;6.17;;;3.00;;
46729;SDS011;32476;50.002;11.854;2023-07-31T02:25:46;8.03;;;2.90;;
46729;SDS011;32476;50.002;11.854;2023-07-31T02:28:12;19.30;;;8.67;;
46729;SDS011;32476;50.002;11.854;2023-07-31T02:30:38;15.07;;;11.03;;
46729;SDS011;32476;50.002;11.854;2023-07-31T02:33:05;6.80;;;2.60;;
46729;SDS011;32476;50.002;11.854;2023-07-31T02:35:31;6.90;;;2.90;;
46729;SDS011;32476;50.002;11.854;2023-07-31T02:37:57;114.97;;;58.77;;
46729;SDS011;32476;50.002;11.854;2023-07-31T02:40:25;11.50;;;3.00;;
46729;SDS011;32476;50.002;11.854;2023-07-31T02:42:50;8.20;;;2.73;;
46729;SDS011;32476;50.002;11.854;2023-07-31T02:45:16;5.90;;;2.80;;
46729;SDS011;32476;50.002;11.854;2023-07-31T02:47:44;7.70;;;3.20;;
46729;SDS011;32476;50.002;11.854;2023-07-31T02:50:10;179.40;;;18.50;;
46729;SDS011;32476;50.002;11.854;2023-07-31T02:52:36;6.33;;;2.80;;
46729;SDS011;32476;50.002;11.854;2023-07-31T02:55:03;7.47;;;3.80;;
46729;SDS011;32476;50.002;11.854;2023-07-31T02:57:30;6.47;;;2.83;;
46729;SDS011;32476;50.002;11.854;2023-07-31T02:59:56;13.50;;;2.90;;
46729;SDS011;32476;50.002;11.854;2023-07-31T03:02:24;7.87;;;3.20;;
46729;SDS011;32476;50.002;11.854;2023-07-31T03:04:50;6.90;;;3.20;;
46729;SDS011;32476;50.002;11.854;2023-07-31T03:07:16;8.57;;;3.00;;
46729;SDS011;32476;50.002;11.854;2023-07-31T03:09:43;8.97;;;3.30;;
46729;SDS011;32476;50.002;11.854;2023-07-31T03:12:09;6.83;;;3.40;;
46729;SDS011;32476;50.002;11.854;2023-07-31T03:14:35;94.93;;;13.80;;
46729;SDS011;32476;50.002;11.854;2023-07-31T03:17:02;41.17;;;18.43;;
46729;SDS011;32476;50.002;11.854;2023-07-31T03:19:30;10.40;;;3.23;;
46729;SDS011;32476;50.002;11.854;2023-07-31T03:21:57;1398.37;;;690.20;;
46729;SDS011;32476;50.002;11.854;2023-07-31T03:24:26;9.67;;;3.53;;
46729;SDS011;32476;50.002;11.854;2023-07-31T03:26:53;12.17;;;4.43;;
46729;SDS011;32476;50.002;11.854;2023-07-31T03:29:19;9.43;;;4.20;;
46729;SDS011;32476;50.002;11.854;2023-07-31T03:31:46;7.97;;;4.70;;
46729;SDS011;32476;50.002;11.854;2023-07-31T03:34:12;8.10;;;5.33;;
46729;SDS011;32476;50.002;11.854;2023-07-31T03:36:38;9.77;;;6.63;;
46729;SDS011;32476;50.002;11.854;2023-07-31T03:39:06;11.47;;;6.50;;
46729;SDS011;32476;50.002;11.854;2023-07-31T03:41:32;10.57;;;9.47;;
46729;SDS011;32476;50.002;11.854;2023-07-31T03:43:58;12.50;;;10.30;;
46729;SDS011;32476;50.002;11.854;2023-07-31T03:46:25;19.00;;;14.23;;
46729;SDS011;32476;50.002;11.854;2023-07-31T03:48:51;16.80;;;15.13;;
46729;SDS011;32476;50.002;11.854;2023-07-31T03:51:17;18.13;;;16.50;;
46729;SDS011;32476;50.002;11.854;2023-07-31T03:53:44;30.53;;;27.90;;
46729;SDS011;32476;50.002;11.854;2023-07-31T03:56:11;10.03;;;6.20;;
46729;SDS011;32476;50.002;11.854;2023-07-31T03:58:37;7.60;;;5.87;;
46729;SDS011;32476;50.002;11.854;2023-07-31T04:01:04;9.93;;;4.80;;
46729;SDS011;32476;50.002;11.854;2023-07-31T04:03:31;5.40;;;4.30;;
46729;SDS011;32476;50.002;11.854;2023-07-31T04:05:57;11.13;;;5.17;;
46729;SDS011;32476;50.002;11.854;2023-07-31T04:08:24;8.97;;;4.10;;
46729;SDS011;32476;50.002;11.854;2023-07-31T04:10:50;8.57;;;4.20;;
46729;SDS011;32476;50.002;11.854;2023-07-31T04:13:16;8.93;;;3.83;;
46729;SDS011;32476;50.002;11.854;2023-07-31T04:15:47;6.53;;;4.53;;
46729;SDS011;32476;50.002;11.854;2023-07-31T04:18:16;5.77;;;3.30;;
46729;SDS011;32476;50.002;11.854;2023-07-31T04:20:44;7.57;;;3.27;;
46729;SDS011;32476;50.002;11.854;2023-07-31T04:23:10;5.13;;;3.00;;
46729;SDS011;32476;50.002;11.854;2023-07-31T04:25:36;7.00;;;3.07;;
46729;SDS011;32476;50.002;11.854;2023-07-31T04:28:04;8.57;;;2.90;;
46729;SDS011;32476;50.002;11.854;2023-07-31T04:30:30;1999.90;;;999.90;;
46729;SDS011;32476;50.002;11.854;2023-07-31T04:32:55;20.20;;;18.47;;
46729;SDS011;32476;50.002;11.854;2023-07-31T04:35:23;11.93;;;10.97;;
46729;SDS011;32476;50.002;11.854;2023-07-31T04:37:49;8.90;;;3.30;;
46729;SDS011;32476;50.002;11.854;2023-07-31T04:40:15;10.87;;;3.20;;
46729;SDS011;32476;50.002;11.854;2023-07-31T04:42:43;12.33;;;3.13;;
46729;SDS011;32476;50.002;11.854;2023-07-31T04:45:09;8.20;;;2.97;;
46729;SDS011;32476;50.002;11.854;2023-07-31T04:47:35;8.43;;;4.30;;
46729;SDS011;32476;50.002;11.854;2023-07-31T04:50:03;6.60;;;4.40;;
46729;SDS011;32476;50.002;11.854;2023-07-31T04:52:29;8.30;;;3.10;;
46729;SDS011;32476;50.002;11.854;2023-07-31T04:54:55;13.17;;;3.07;;
46729;SDS011;32476;50.002;11.854;2023-07-31T04:57:22;5.00;;;2.87;;
46729;SDS011;32476;50.002;11.854;2023-07-31T04:59:48;8.00;;;3.33;;
46729;SDS011;32476;50.002;11.854;2023-07-31T05:02:14;5.07;;;2.33;;
46729;SDS011;32476;50.002;11.854;2023-07-31T05:04:42;8.23;;;2.77;;
46729;SDS011;32476;50.002;11.854;2023-07-31T05:07:08;4.07;;;2.00;;
46729;SDS011;32476;50.002;11.854;2023-07-31T05:09:34;9.03;;;3.10;;
46729;SDS011;32476;50.002;11.854;2023-07-31T05:12:01;10.67;;;2.37;;
46729;SDS011;32476;50.002;11.854;2023-07-31T05:14:30;7.63;;;2.57;;
46729;SDS011;32476;50.002;11.854;2023-07-31T05:16:55;12.60;;;2.90;;
46729;SDS011;32476;50.002;11.854;2023-07-31T05:19:23;8.60;;;2.20;;
46729;SDS011;32476;50.002;11.854;2023-07-31T05:21:49;7.43;;;2.83;;
46729;SDS011;32476;50.002;11.854;2023-07-31T05:24:15;7.37;;;2.40;;
46729;SDS011;32476;50.002;11.854;2023-07-31T05:26:42;7.47;;;2.70;;
46729;SDS011;32476;50.002;11.854;2023-07-31T05:29:08;5.67;;;2.20;;
46729;SDS011;32476;50.002;11.854;2023-07-31T05:31:34;8.23;;;3.03;;
46729;SDS011;32476;50.002;11.854;2023-07-31T05:34:01;6.17;;;2.17;;
46729;SDS011;32476;50.002;11.854;2023-07-31T05:36:27;54.90;;;51.67;;
46729;SDS011;32476;50.002;11.854;2023-07-31T05:38:53;9.03;;;5.17;;
46729;SDS011;32476;50.002;11.854;2023-07-31T05:41:21;8.97;;;5.27;;
46729;SDS011;32476;50.002;11.854;2023-07-31T05:43:47;8.80;;;2.87;;
46729;SDS011;32476;50.002;11.854;2023-07-31T05:46:12;7.13;;;2.53;;
46729;SDS011;32476;50.002;11.854;2023-07-31T05:48:40;9.30;;;2.97;;
46729;SDS011;32476;50.002;11.854;2023-07-31T05:51:07;11.60;;;3.27;;
46729;SDS011;32476;50.002;11.854;2023-07-31T05:53:33;6.73;;;2.30;;
46729;SDS011;32476;50.002;11.854;2023-07-31T05:56:02;8.50;;;2.63;;
46729;SDS011;32476;50.002;11.854;2023-07-31T05:58:28;9.33;;;2.83;;
46729;SDS011;32476;50.002;11.854;2023-07-31T06:00:54;10.43;;;2.50;;
46729;SDS011;32476;50.002;11.854;2023-07-31T06:03:22;8.53;;;2.87;;
46729;SDS011;32476;50.002;11.854;2023-07-31T06:05:48;42.80;;;39.97;;
46729;SDS011;32476;50.002;11.854;2023-07-31T06:08:14;1999.90;;;999.90;;
46729;SDS011;32476;50.002;11.854;2023-07-31T06:10:41;40.10;;;37.10;;
46729;SDS011;32476;50.002;11.854;2023-07-31T06:13:07;8.77;;;2.60;;
46729;SDS011;32476;50.002;11.854;2023-07-31T06:15:34;9.33;;;2.97;;
46729;SDS011;32476;50.002;11.854;2023-07-31T06:18:01;8.20;;;3.23;;
46729;SDS011;32476;50.002;11.854;2023-07-31T06:20:28;1142.00;;;201.53;;
46729;SDS011;32476;50.002;11.854;2023-07-31T06:22:54;1999.90;;;999.90;;
46729;SDS011;32476;50.002;11.854;2023-07-31T06:25:22;56.63;;;36.53;;
46729;SDS011;32476;50.002;11.854;2023-07-31T06:27:48;443.30;;;149.43;;
46729;SDS011;32476;50.002;11.854;2023-07-31T06:30:14;367.37;;;316.40;;
46729;SDS011;32476;50.002;11.854;2023-07-31T06:32:41;15.40;;;9.23;;
46729;SDS011;32476;50.002;11.854;2023-07-31T06:35:08;317.37;;;287.53;;
46729;SDS011;32476;50.002;11.854;2023-07-31T06:37:34;155.73;;;139.27;;
46729;SDS011;32476;50.002;11.854;2023-07-31T06:40:01;7.83;;;2.80;;
46729;SDS011;32476;50.002;11.854;2023-07-31T06:42:30;146.67;;;110.63;;
46729;SDS011;32476;50.002;11.854;2023-07-31T06:44:56;15.10;;;3.20;;
46729;SDS011;32476;50.002;11.854;2023-07-31T06:47:23;7.00;;;5.83;;
46729;SDS011;32476;50.002;11.854;2023-07-31T06:49:49;8.23;;;2.87;;
46729;SDS011;32476;50.002;11.854;2023-07-31T06:52:16;227.87;;;206.90;;
46729;SDS011;32476;50.002;11.854;2023-07-31T06:54:43;8.27;;;3.23;;
46729;SDS011;32476;50.002;11.854;2023-07-31T06:57:09;7.67;;;2.37;;
46729;SDS011;32476;50.002;11.854;2023-07-31T06:59:35;8.03;;;2.67;;
46729;SDS011;32476;50.002;11.854;2023-07-31T07:02:02;7.20;;;2.60;;
46729;SDS011;32476;50.002;11.854;2023-07-31T07:04:29;5.57;;;2.70;;
46729;SDS011;32476;50.002;11.854;2023-07-31T07:06:55;6.80;;;2.40;;
46729;SDS011;32476;50.002;11.854;2023-07-31T07:09:22;7.97;;;2.73;;
46729;SDS011;32476;50.002;11.854;2023-07-31T07:11:48;8.33;;;3.43;;
46729;SDS011;32476;50.002;11.854;2023-07-31T07:14:14;10.40;;;9.23;;
46729;SDS011;32476;50.002;11.854;2023-07-31T07:16:41;9.33;;;2.87;;
46729;SDS011;32476;50.002;11.854;2023-07-31T07:19:07;9.00;;;2.87;;
46729;SDS011;32476;50.002;11.854;2023-07-31T07:21:33;8.40;;;2.60;;
46729;SDS011;32476;50.002;11.854;2023-07-31T07:24:00;5.53;;;2.50;;
46729;SDS011;32476;50.002;11.854;2023-07-31T07:26:26;7.17;;;2.77;;
46729;SDS011;32476;50.002;11.854;2023-07-31T07:28:52;7.57;;;2.43;;
46729;SDS011;32476;50.002;11.854;2023-07-31T07:31:20;6.00;;;2.83;;
46729;SDS011;32476;50.002;11.854;2023-07-31T07:33:46;9.80;;;3.00;;
46729;SDS011;32476;50.002;11.854;2023-07-31T07:36:12;8.33;;;2.97;;
46729;SDS011;32476;50.002;11.854;2023-07-31T07:38:41;7.47;;;4.53;;
46729;SDS011;32476;50.002;11.854;2023-07-31T07:41:07;11.63;;;6.97;;
46729;SDS011;32476;50.002;11.854;2023-07-31T07:43:33;9.63;;;5.90;;
46729;SDS011;32476;50.002;11.854;2023-07-31T07:46:00;17.83;;;15.87;;
46729;SDS011;32476;50.002;11.854;2023-07-31T07:48:27;10.33;;;3.07;;
46729;SDS011;32476;50.002;11.854;2023-07-31T07:50:53;6.60;;;2.60;;
46729;SDS011;32476;50.002;11.854;2023-07-31T07:53:20;6.40;;;2.57;;
46729;SDS011;32476;50.002;11.854;2023-07-31T07:55:46;9.33;;;3.03;;
46729;SDS011;32476;50.002;11.854;2023-07-31T07:58:12;8.03;;;2.93;;
46729;SDS011;32476;50.002;11.854;2023-07-31T08:00:41;8.67;;;3.07;;
46729;SDS011;32476;50.002;11.854;2023-07-31T08:03:07;10.97;;;3.07;;
46729;SDS011;32476;50.002;11.854;2023-07-31T08:05:33;7.67;;;2.83;;
46729;SDS011;32476;50.002;11.854;2023-07-31T08:08:01;10.90;;;3.07;;
46729;SDS011;32476;50.002;11.854;2023-07-31T08:10:26;13.40;;;3.13;;
46729;SDS011;32476;50.002;11.854;2023-07-31T08:12:53;11.17;;;3.13;;
46729;SDS011;32476;50.002;11.854;2023-07-31T08:15:21;9.23;;;2.90;;
46729;SDS011;32476;50.002;11.854;2023-07-31T08:17:47;6.67;;;3.07;;
46729;SDS011;32476;50.002;11.854;2023-07-31T08:20:12;6.47;;;2.80;;
46729;SDS011;32476;50.002;11.854;2023-07-31T08:22:41;6.40;;;3.03;;
46729;SDS011;32476;50.002;11.854;2023-07-31T08:25:07;7.47;;;3.10;;
46729;SDS011;32476;50.002;11.854;2023-07-31T08:27:33;9.03;;;2.80;;
46729;SDS011;32476;50.002;11.854;2023-07-31T08:30:00;8.53;;;3.00;;
46729;SDS011;32476;50.002;11.854;2023-07-31T08:32:27;8.53;;;4.77;;
46729;SDS011;32476;50.002;11.854;2023-07-31T08:34:52;6.83;;;2.90;;
46729;SDS011;32476;50.002;11.854;2023-07-31T08:37:20;24.10;;;6.27;;
46729;SDS011;32476;50.002;11.854;2023-07-31T08:39:46;9.80;;;3.37;;
46729;SDS011;32476;50.002;11.854;2023-07-31T08:42:12;1999.90;;;999.90;;
46729;SDS011;32476;50.002;11.854;2023-07-31T08:44:39;1999.90;;;999.90;;
46729;SDS011;32476;50.002;11.854;2023-07-31T08:47:05;1999.90;;;999.90;;
46729;SDS011;32476;50.002;11.854;2023-07-31T08:49:32;1999.90;;;999.90;;
46729;SDS011;32476;50.002;11.854;2023-07-31T08:52:01;1999.90;;;999.90;;
46729;SDS011;32476;50.002;11.854;2023-07-31T08:54:28;1999.90;;;999.90;;
46729;SDS011;32476;50.002;11.854;2023-07-31T08:56:56;1999.90;;;999.90;;
46729;SDS011;32476;50.002;11.854;2023-07-31T08:59:27;1999.90;;;999.90;;
46729;SDS011;32476;50.002;11.854;2023-07-31T09:01:57;1999.90;;;999.90;;
46729;SDS011;32476;50.002;11.854;2023-07-31T09:04:33;1999.90;;;999.90;;
46729;SDS011;32476;50.002;11.854;2023-07-31T09:07:00;1999.90;;;999.90;;
46729;SDS011;32476;50.002;11.854;2023-07-31T09:09:30;1999.90;;;999.90;;
46729;SDS011;32476;50.002;11.854;2023-07-31T09:11:58;1999.90;;;999.90;;
46729;SDS011;32476;50.002;11.854;2023-07-31T09:14:24;1999.90;;;999.90;;
46729;SDS011;32476;50.002;11.854;2023-07-31T09:16:52;1999.90;;;999.90;;
46729;SDS011;32476;50.002;11.854;2023-07-31T09:19:25;1999.90;;;999.90;;
46729;SDS011;32476;50.002;11.854;2023-07-31T09:21:52;1999.90;;;999.90;;
46729;SDS011;32476;50.002;11.854;2023-07-31T09:24:28;1999.90;;;999.90;;
46729;SDS011;32476;50.002;11.854;2023-07-31T09:26:58;48.60;;;45.57;;
46729;SDS011;32476;50.002;11.854;2023-07-31T09:29:26;1999.90;;;999.90;;
46729;SDS011;32476;50.002;11.854;2023-07-31T09:31:55;1999.90;;;999.90;;
46729;SDS011;32476;50.002;11.854;2023-07-31T09:34:37;1999.90;;;999.90;;
46729;SDS011;32476;50.002;11.854;2023-07-31T09:37:06;1999.90;;;999.90;;
46729;SDS011;32476;50.002;11.854;2023-07-31T09:39:45;1999.90;;;999.90;;
46729;SDS011;32476;50.002;11.854;2023-07-31T09:42:12;1999.90;;;999.90;;
46729;SDS011;32476;50.002;11.854;2023-07-31T09:44:40;16.17;;;13.27;;
46729;SDS011;32476;50.002;11.854;2023-07-31T09:47:06;2.63;;;2.00;;
46729;SDS011;32476;50.002;11.854;2023-07-31T09:49:50;3.10;;;1.60;;
46729;SDS011;32476;50.002;11.854;2023-07-31T09:52:17;1.40;;;1.13;;
46729;SDS011;32476;50.002;11.854;2023-07-31T09:54:43;4.90;;;1.60;;
46729;SDS011;32476;50.002;11.854;2023-07-31T09:57:10;1.97;;;1.43;;
46729;SDS011;32476;50.002;11.854;2023-07-31T09:59:37;2.00;;;1.60;;
46729;SDS011;32476;50.002;11.854;2023-07-31T10:02:03;1.40;;;1.23;;
46729;SDS011;32476;50.002;11.854;2023-07-31T10:04:41;2.60;;;1.60;;
46729;SDS011;32476;50.002;11.854;2023-07-31T10:07:09;1.45;;;1.25;;
46729;SDS011;32476;50.002;11.854;2023-07-31T10:09:35;3.83;;;1.80;;
46729;SDS011;32476;50.002;11.854;2023-07-31T10:12:03;1999.90;;;999.90;;
46729;SDS011;32476;50.002;11.854;2023-07-31T10:14:35;104.10;;;15.73;;
46729;SDS011;32476;50.002;11.854;2023-07-31T10:17:03;6.70;;;2.60;;
46729;SDS011;32476;50.002;11.854;2023-07-31T10:19:30;4.37;;;2.40;;
46729;SDS011;32476;50.002;11.854;2023-07-31T10:21:57;3.90;;;2.47;;
46729;SDS011;32476;50.002;11.854;2023-07-31T10:24:26;5.53;;;3.07;;
46729;SDS011;32476;50.002;11.854;2023-07-31T10:26:53;1999.90;;;999.90;;
46729;SDS011;32476;50.002;11.854;2023-07-31T10:29:26;1999.90;;;999.90;;
46729;SDS011;32476;50.002;11.854;2023-07-31T10:31:56;1999.90;;;999.90;;
46729;SDS011;32476;50.002;11.854;2023-07-31T10:34:23;1999.90;;;999.90;;
46729;SDS011;32476;50.002;11.854;2023-07-31T10:37:12;1999.90;;;999.90;;
46729;SDS011;32476;50.002;11.854;2023-07-31T10:40:06;1999.90;;;999.90;;
46729;SDS011;32476;50.002;11.854;2023-07-31T10:42:50;1999.90;;;999.90;;
46729;SDS011;32476;50.002;11.854;2023-07-31T10:45:39;1999.90;;;999.90;;
46729;SDS011;32476;50.002;11.854;2023-07-31T10:48:12;1999.90;;;999.90;;
46729;SDS011;32476;50.002;11.854;2023-07-31T10:51:02;1999.90;;;999.90;;
46729;SDS011;32476;50.002;11.854;2023-07-31T10:53:37;1999.90;;;999.90;;
46729;SDS011;32476;50.002;11.854;2023-07-31T10:56:05;1999.90;;;999.90;;
46729;SDS011;32476;50.002;11.854;2023-07-31T10:58:33;1999.90;;;999.90;;
46729;SDS011;32476;50.002;11.854;2023-07-31T11:01:02;1999.90;;;999.90;;
46729;SDS011;32476;50.002;11.854;2023-07-31T11:03:46;1999.90;;;999.90;;
46729;SDS011;32476;50.002;11.854;2023-07-31T11:06:16;1999.90;;;999.90;;
46729;SDS011;32476;50.002;11.854;2023-07-31T11:08:43;1999.90;;;999.90;;
46729;SDS011;32476;50.002;11.854;2023-07-31T11:11:15;1999.90;;;999.90;;
46729;SDS011;32476;50.002;11.854;2023-07-31T11:13:45;1999.90;;;999.90;;
46729;SDS011;32476;50.002;11.854;2023-07-31T11:16:14;1999.90;;;999.90;;
46729;SDS011;32476;50.002;11.854;2023-07-31T11:18:44;1999.90;;;999.90;;
46729;SDS011;32476;50.002;11.854;2023-07-31T11:21:13;1999.90;;;999.90;;
46729;SDS011;32476;50.002;11.854;2023-07-31T11:23:46;1999.90;;;999.90;;
46729;SDS011;32476;50.002;11.854;2023-07-31T11:26:13;1999.90;;;999.90;;
46729;SDS011;32476;50.002;11.854;2023-07-31T11:28:41;1999.90;;;999.90;;
46729;SDS011;32476;50.002;11.854;2023-07-31T11:31:09;1999.90;;;999.90;;
46729;SDS011;32476;50.002;11.854;2023-07-31T11:33:36;1999.90;;;999.90;;
46729;SDS011;32476;50.002;11.854;2023-07-31T11:36:02;1999.90;;;999.90;;
46729;SDS011;32476;50.002;11.854;2023-07-31T11:38:33;1999.90;;;999.90;;
46729;SDS011;32476;50.002;11.854;2023-07-31T11:41:01;1999.90;;;999.90;;
46729;SDS011;32476;50.002;11.854;2023-07-31T11:43:31;42.38;;;38.42;;
46729;SDS011;32476;50.002;11.854;2023-07-31T11:45:58;1999.90;;;999.90;;
46729;SDS011;32476;50.002;11.854;2023-07-31T11:48:29;1999.90;;;999.90;;
46729;SDS011;32476;50.002;11.854;2023-07-31T11:51:04;1999.90;;;999.90;;
46729;SDS011;32476;50.002;11.854;2023-07-31T11:53:34;1999.90;;;999.90;;
46729;SDS011;32476;50.002;11.854;2023-07-31T11:56:19;1999.90;;;999.90;;
46729;SDS011;32476;50.002;11.854;2023-07-31T11:58:48;1999.90;;;999.90;;
46729;SDS011;32476;50.002;11.854;2023-07-31T12:01:24;1999.90;;;999.90;;
46729;SDS011;32476;50.002;11.854;2023-07-31T12:03:52;1999.90;;;999.90;;
46729;SDS011;32476;50.002;11.854;2023-07-31T12:06:19;1999.90;;;999.90;;
46729;SDS011;32476;50.002;11.854;2023-07-31T12:08:49;1999.90;;;999.90;;
46729;SDS011;32476;50.002;11.854;2023-07-31T12:11:15;1999.90;;;999.90;;
46729;SDS011;32476;50.002;11.854;2023-07-31T12:13:43;1999.90;;;999.90;;
46729;SDS011;32476;50.002;11.854;2023-07-31T12:16:10;1999.90;;;999.90;;
46729;SDS011;32476;50.002;11.854;2023-07-31T12:18:37;1999.90;;;999.90;;
46729;SDS011;32476;50.002;11.854;2023-07-31T12:21:07;1999.90;;;999.90;;
46729;SDS011;32476;50.002;11.854;2023-07-31T12:23:38;1999.90;;;999.90;;
46729;SDS011;32476;50.002;11.854;2023-07-31T12:26:05;1999.90;;;999.90;;
46729;SDS011;32476;50.002;11.854;2023-07-31T12:31:10;1999.90;;;999.90;;
46729;SDS011;32476;50.002;11.854;2023-07-31T12:33:48;1999.90;;;999.90;;
46729;SDS011;32476;50.002;11.854;2023-07-31T12:36:16;1999.90;;;999.90;;
46729;SDS011;32476;50.002;11.854;2023-07-31T12:38:50;1999.90;;;999.90;;
46729;SDS011;32476;50.002;11.854;2023-07-31T12:41:17;1999.90;;;999.90;;
46729;SDS011;32476;50.002;11.854;2023-07-31T12:43:44;1999.90;;;999.90;;
46729;SDS011;32476;50.002;11.854;2023-07-31T12:46:12;1999.90;;;999.90;;
46729;SDS011;32476;50.002;11.854;2023-07-31T12:48:39;1999.90;;;999.90;;
46729;SDS011;32476;50.002;11.854;2023-07-31T12:51:06;1999.90;;;999.90;;
46729;SDS011;32476;50.002;11.854;2023-07-31T12:53:34;1999.90;;;999.90;;
46729;SDS011;32476;50.002;11.854;2023-07-31T12:56:00;1999.90;;;999.90;;
46729;SDS011;32476;50.002;11.854;2023-07-31T12:58:27;1999.90;;;999.90;;
46729;SDS011;32476;50.002;11.854;2023-07-31T13:00:54;1999.90;;;999.90;;
46729;SDS011;32476;50.002;11.854;2023-07-31T13:03:20;1999.90;;;999.90;;
46729;SDS011;32476;50.002;11.854;2023-07-31T13:05:46;1999.90;;;999.90;;
46729;SDS011;32476;50.002;11.854;2023-07-31T13:08:14;1999.90;;;999.90;;
46729;SDS011;32476;50.002;11.854;2023-07-31T13:10:41;1999.90;;;999.90;;
46729;SDS011;32476;50.002;11.854;2023-07-31T13:13:07;1.90;;;1.85;;
46729;SDS011;32476;50.002;11.854;2023-07-31T13:15:34;0.30;;;0.30;;
46729;SDS011;32476;50.002;11.854;2023-07-31T13:18:00;0.30;;;0.30;;
46729;SDS011;32476;50.002;11.854;2023-07-31T13:20:26;0.30;;;0.30;;
46729;SDS011;32476;50.002;11.854;2023-07-31T13:22:54;0.30;;;0.30;;
46729;SDS011;32476;50.002;11.854;2023-07-31T13:25:20;0.30;;;0.30;;
46729;SDS011;32476;50.002;11.854;2023-07-31T13:27:45;0.30;;;0.30;;
46729;SDS011;32476;50.002;11.854;2023-07-31T13:30:13;0.30;;;0.30;;
46729;SDS011;32476;50.002;11.854;2023-07-31T13:32:39;0.30;;;0.30;;
46729;SDS011;32476;50.002;11.854;2023-07-31T13:35:05;0.40;;;0.40;;
46729;SDS011;32476;50.002;11.854;2023-07-31T13:37:34;0.30;;;0.30;;
46729;SDS011;32476;50.002;11.854;2023-07-31T13:40:00;0.30;;;0.30;;
46729;SDS011;32476;50.002;11.854;2023-07-31T13:42:27;0.85;;;0.85;;
46729;SDS011;32476;50.002;11.854;2023-07-31T13:44:55;0.40;;;0.40;;
46729;SDS011;32476;50.002;11.854;2023-07-31T13:47:21;0.30;;;0.30;;
46729;SDS011;32476;50.002;11.854;2023-07-31T13:49:47;0.50;;;0.50;;
46729;SDS011;32476;50.002;11.854;2023-07-31T13:52:15;0.40;;;0.40;;
46729;SDS011;32476;50.002;11.854;2023-07-31T13:54:41;0.50;;;0.50;;
46729;SDS011;32476;50.002;11.854;2023-07-31T13:57:08;0.40;;;0.40;;
46729;SDS011;32476;50.002;11.854;2023-07-31T13:59:35;0.52;;;0.52;;
46729;SDS011;32476;50.002;11.854;2023-07-31T14:02:02;0.90;;;0.90;;
46729;SDS011;32476;50.002;11.854;2023-07-31T14:04:28;1.17;;;1.17;;
46729;SDS011;32476;50.002;11.854;2023-07-31T14:06:56;1.40;;;1.40;;
46729;SDS011;32476;50.002;11.854;2023-07-31T14:09:22;0.80;;;0.80;;
46729;SDS011;32476;50.002;11.854;2023-07-31T14:11:48;1.98;;;1.98;;
46729;SDS011;32476;50.002;11.854;2023-07-31T14:14:15;7.35;;;7.05;;
46729;SDS011;32476;50.002;11.854;2023-07-31T14:16:43;4.90;;;4.70;;
46729;SDS011;32476;50.002;11.854;2023-07-31T14:19:09;5.82;;;5.63;;
46729;SDS011;32476;50.002;11.854;2023-07-31T14:21:36;6.80;;;6.50;;
46729;SDS011;32476;50.002;11.854;2023-07-31T14:24:02;24.33;;;23.08;;
46729;SDS011;32476;50.002;11.854;2023-07-31T14:26:28;71.03;;;67.57;;
46729;SDS011;32476;50.002;11.854;2023-07-31T14:28:56;1999.90;;;999.90;;